Flight Track Log - Related Links

Times and Time Zones

All times are in EDT time to prevent confusion due to time zone crossing. See the SWA398 flight status page for this flight to view local times or setup timezone preferences in your user account.

Time Position Orientation Groundspeed Altitude Reporting Facility
EDT Latitude Longitude Course Direction KTS MPH feet Rate Location/Type
Wed 10:40:06 AM 38.2431 -85.9247 249° West 288 331 9,000  Level Indianapolis Center
Wed 10:41:08 AM 38.1981 -86.0139 237° Southwest 320 368 11,300 2,516 Climbing Indianapolis Center
Wed 10:42:10 AM 38.2031 -86.1386 273° West 352 405 14,200 2,806 Climbing Indianapolis Center
Wed 10:43:00 AM 38.0500 -86.2456 270° West  Level FlightAware Approximate
Wed 10:43:12 AM 38.2083 -86.2722 273° West 372 428 17,100  Level Indianapolis Center
Wed 10:44:00 AM 38.0368 -86.4169 264° West  Level FlightAware Approximate
Wed 10:44:14 AM 38.2144 -86.4111 273° West 387 445 19,100  Level Indianapolis Center
Wed 10:45:16 AM 38.2194 -86.5558 273° West 404 465 21,900 2,371 Climbing Indianapolis Center
Wed 10:46:18 AM 38.2261 -86.7042 273° West 414 476 24,000 2,098 Climbing Indianapolis Center
Wed 10:47:19 AM 38.2314 -86.8597 273° West 430 495 26,200 1,951 Climbing Indianapolis Center
Wed 10:48:21 AM 38.2375 -87.0297 273° West 443 510 28,000 1,645 Climbing Indianapolis Center
Wed 10:49:23 AM 38.2436 -87.1931 273° West 455 524 29,600 1,597 Climbing Indianapolis Center
Wed 10:50:25 AM 38.2489 -87.3636 272° West 471 542 31,300 1,839 Climbing Indianapolis Center
Wed 10:51:27 AM 38.2558 -87.5631 273° West 466 536 33,400 1,887 Climbing Indianapolis Center
Wed 10:52:29 AM 38.2608 -87.7281 272° West 465 535 35,200 1,645 Climbing Indianapolis Center
Wed 10:53:31 AM 38.2658 -87.8908 272° West 461 531 36,800 1,355 Climbing Indianapolis Center
Wed 10:54:33 AM 38.2708 -88.0508 272° West 454 522 38,000 581 Climbing Indianapolis Center
Wed 10:55:35 AM 38.2753 -88.2106 272° West 452 520 38,000  Level Indianapolis Center
Wed 10:56:37 AM 38.2786 -88.3714 272° West 453 521 38,000  Level Indianapolis Center
Wed 10:57:38 AM 38.2819 -88.5325 272° West 454 522 38,000  Level Indianapolis Center
Wed 10:58:40 AM 38.2856 -88.6931 272° West 455 524 38,000  Level Indianapolis Center
Wed 10:59:42 AM 38.2897 -88.8842 272° West 451 519 38,000  Level Indianapolis Center
Wed 11:00:44 AM 38.2931 -89.0453 272° West 453 521 38,000  Level Indianapolis Center
Wed 11:01:46 AM 38.2969 -89.2050 272° West 452 520 38,000  Level Indianapolis Center
Wed 11:02:48 AM 38.2989 -89.3647 271° West 452 520 38,000  Level Indianapolis Center
Wed 11:03:59 AM 38.3019 -89.5683 271° West 453 521 38,000  Level Kansas City Center
Wed 11:05:01 AM 38.3036 -89.7275 271° West 455 524 38,000  Level Kansas City Center
Wed 11:06:04 AM 38.3067 -89.8897 271° West 457 526 38,000  Level Kansas City Center
Wed 11:07:05 AM 38.3078 -90.0533 271° West 459 528 38,000  Level Kansas City Center
Wed 11:08:08 AM 38.3086 -90.2164 270° West 459 528 38,000  Level Kansas City Center
Wed 11:09:09 AM 38.3094 -90.3803 270° West 459 528 38,000  Level Kansas City Center
Wed 11:10:13 AM 38.3106 -90.5442 271° West 459 528 38,000  Level Kansas City Center
Wed 11:11:13 AM 38.3119 -90.7072 271° West 459 528 38,000  Level Kansas City Center
Wed 11:12:17 AM 38.3133 -90.9006 271° West 456 525 38,000  Level Kansas City Center
Wed 11:13:18 AM 38.3139 -91.0575 270° West 446 513 38,000  Level Kansas City Center
Wed 11:14:19 AM 38.3136 -91.2172 270° West 447 514 38,000  Level Kansas City Center
Wed 11:15:22 AM 38.3139 -91.3772 270° West 451 519 38,000  Level Kansas City Center
Wed 11:16:23 AM 38.3139 -91.5339 270° West 451 519 38,000  Level Kansas City Center
Wed 11:18:29 AM 38.3150 -91.8833 270° West 448 516 38,000  Level Kansas City Center
Wed 11:19:30 AM 38.3144 -92.0392 270° West 445 512 38,000  Level Kansas City Center
Wed 11:20:31 AM 38.3128 -92.1986 269° West 448 516 38,000  Level Kansas City Center
Wed 11:21:34 AM 38.3114 -92.3564 269° West 450 518 38,000  Level Kansas City Center
Wed 11:22:38 AM 38.3086 -92.5458 269° West 450 518 38,000  Level Kansas City Center
Wed 11:23:38 AM 38.3072 -92.7039 269° West 449 517 38,000  Level Kansas City Center
Wed 11:24:40 AM 38.3056 -92.8594 269° West 445 512 38,000  Level Kansas City Center
Wed 11:25:43 AM 38.3031 -93.0153 269° West 442 509 38,000  Level Kansas City Center
Wed 11:26:45 AM 38.3003 -93.1700 269° West 439 505 38,000  Level Kansas City Center
Wed 11:27:45 AM 38.2978 -93.3256 269° West 440 506 38,000  Level Kansas City Center
Wed 11:28:49 AM 38.2944 -93.5131 269° West 442 509 38,000  Level Kansas City Center
Wed 11:29:50 AM 38.2911 -93.6686 268° West 441 507 38,000  Level Kansas City Center
Wed 11:30:53 AM 38.2878 -93.8244 268° West 441 507 38,000  Level Kansas City Center
Wed 11:31:55 AM 38.2850 -93.9786 269° West 439 505 38,000  Level Kansas City Center
Wed 11:32:56 AM 38.2806 -94.1494 268° West 437 503 38,000  Level Kansas City Center
Wed 11:33:59 AM 38.2764 -94.2983 268° West 438 504 38,000  Level Kansas City Center
Wed 11:35:01 AM 38.2728 -94.4708 269° West 438 504 38,000  Level Kansas City Center
Wed 11:36:02 AM 38.2889 -94.6183 278° West 439 505 38,000  Level Kansas City Center
Wed 11:37:05 AM 38.3111 -94.7603 281° West 431 496 38,000  Level Kansas City Center
Wed 11:38:06 AM 38.3344 -94.9328 280° West 438 504 38,000  Level Kansas City Center
Wed 11:39:09 AM 38.3536 -95.0792 280° West 438 504 38,000  Level Kansas City Center
Wed 11:40:10 AM 38.3772 -95.2503 280° West 438 504 38,000  Level Kansas City Center
Wed 11:41:13 AM 38.3961 -95.3997 279° West 441 507 38,000  Level Kansas City Center
Wed 11:42:15 AM 38.4203 -95.5747 280° West 445 512 38,000  Level Kansas City Center
Wed 11:43:15 AM 38.4400 -95.7256 280° West 447 514 38,000  Level Kansas City Center
Wed 11:44:19 AM 38.4631 -95.9003 280° West 449 517 38,000  Level Kansas City Center
Wed 11:45:20 AM 38.4817 -96.0503 279° West 447 514 38,000  Level Kansas City Center
Wed 11:46:24 AM 38.5011 -96.2000 279° West 446 513 38,000  Level Kansas City Center
Wed 11:47:24 AM 38.5231 -96.3747 279° West 446 513 38,000  Level Kansas City Center
Wed 11:48:28 AM 38.5414 -96.5239 279° West 444 511 38,000  Level Kansas City Center
Wed 11:49:28 AM 38.5622 -96.6983 279° West 444 511 38,000  Level Kansas City Center
Wed 11:50:32 AM 38.5817 -96.8578 279° West 443 510 38,000  Level Kansas City Center
Wed 11:51:32 AM 38.6006 -97.0131 279° West 444 511 38,000  Level Kansas City Center
Wed 11:52:36 AM 38.6197 -97.1681 279° West 443 510 38,000  Level Kansas City Center
Wed 11:53:37 AM 38.6375 -97.3244 278° West 446 513 38,000  Level Kansas City Center
Wed 11:54:40 AM 38.6561 -97.4794 279° West 444 511 38,000  Level Kansas City Center
Wed 11:55:41 AM 38.6772 -97.6672 278° West 447 514 38,000  Level Kansas City Center
Wed 11:56:43 AM 38.6950 -97.8239 278° West 447 514 38,000  Level Kansas City Center
Wed 11:57:44 AM 38.7125 -97.9808 278° West 448 516 38,000  Level Kansas City Center
Wed 11:58:47 AM 38.7300 -98.1378 278° West 447 514 38,000  Level Kansas City Center
Wed 11:59:49 AM 38.7472 -98.2950 278° West 448 516 38,000  Level Kansas City Center
Wed 12:00:52 PM 38.7661 -98.4831 277° West 447 514 38,000  Level Kansas City Center
Wed 12:01:54 PM 38.7850 -98.6408 279° West 448 516 38,000  Level Kansas City Center
Wed 12:02:57 PM 38.7994 -98.7986 277° West 448 516 38,000  Level Kansas City Center
Wed 12:03:58 PM 38.8161 -98.9558 278° West 447 514 38,000  Level Kansas City Center
Wed 12:04:59 PM 38.8317 -99.1125 277° West 445 512 38,000  Level Kansas City Center
Wed 12:06:02 PM 38.8461 -99.2700 277° West 446 513 38,000  Level Kansas City Center
Wed 12:07:03 PM 38.8506 -99.4608 272° West 447 514 38,000  Level Kansas City Center
Wed 12:08:06 PM 38.8514 -99.6128 270° West 449 517 38,000  Level Kansas City Center
Wed 12:09:07 PM 38.8525 -99.7925 271° West 452 520 38,000  Level Kansas City Center
Wed 12:10:09 PM 38.8531 -99.9467 270° West 453 521 38,000  Level Kansas City Center
Wed 12:11:13 PM 38.8544 -100.1272 271° West 456 525 38,000  Level Denver Center
Wed 12:12:15 PM 38.8550 -100.3086 270° West 458 527 38,000  Level Denver Center
Wed 12:13:18 PM 38.8553 -100.4656 270° West 459 528 38,000  Level Denver Center
Wed 12:14:20 PM 38.8556 -100.6483 270° West 460 529 38,000 -435 Level Denver Center
Wed 12:15:22 PM 38.8553 -100.8064 270° West 465 535 37,100 -871 Descending Denver Center
Wed 12:16:24 PM 38.8550 -100.9619 270° West 462 532 36,200 -532 Descending Denver Center
Wed 12:17:26 PM 38.8539 -101.1439 270° West 457 526 36,000 -97 Descending Denver Center
Wed 12:18:28 PM 38.8539 -101.2986 270° West 455 524 36,000 -387 Level Denver Center
Wed 12:19:30 PM 38.8522 -101.4797 269° West 457 526 35,200 -823 Descending Denver Center
Wed 12:20:32 PM 38.8508 -101.6367 269° West 460 529 34,300 -581 Descending Denver Center
Wed 12:21:34 PM 38.8486 -101.8178 269° West 457 526 34,000 -145 Descending Denver Center
Wed 12:22:36 PM 38.8472 -101.9744 269° West 460 529 34,000  Level Denver Center
Wed 12:23:38 PM 38.8469 -102.1572 270° West 460 529 34,000  Level Denver Center
Wed 12:24:40 PM 38.8900 -102.3047 291° West 461 531 34,000  Level Denver Center
Wed 12:25:42 PM 38.9431 -102.4728 292° West 456 525 34,000  Level Denver Center
Wed 12:26:45 PM 38.9886 -102.6172 292° West 457 526 34,000  Level Denver Center
Wed 12:27:46 PM 39.0442 -102.7947 292° West 458 527 34,000  Level Denver Center
Wed 12:28:48 PM 39.0908 -102.9450 292° West 454 522 34,000  Level Denver Center
Wed 12:29:51 PM 39.1389 -103.0964 292° West 456 525 34,000 -1,344 Level Denver Center
Wed 12:30:53 PM 39.1856 -103.2475 292° West 456 525 31,200 -2,758 Descending Denver Center
Wed 12:31:55 PM 39.2322 -103.3992 292° West 457 526 28,300 -2,613 Descending Denver Center
Wed 12:32:57 PM 39.2783 -103.5481 292° West 450 518 25,800 -2,613 Descending Denver Center
Wed 12:33:59 PM 39.3314 -103.7222 292° West 435 501 22,900 -2,274 Descending Denver Center
Wed 12:35:01 PM 39.3739 -103.8628 291° West 424 488 21,100 -1,306 Descending Denver Center
Wed 12:36:03 PM 39.4217 -103.9825 297° West 377 434 20,200 -1,258 Descending Denver Center
Wed 12:37:05 PM 39.4864 -104.0878 309° West 352 405 18,500 -1,306 Descending Denver Center
Wed 12:38:07 PM 39.5425 -104.1828 307° West 336 387 17,500 -774 Descending Denver Center
Wed 12:39:09 PM 39.6025 -104.2817 308° West 326 375 16,900 -968 Descending Denver Center
Wed 12:40:11 PM 39.6542 -104.3703 307° West 314 361 15,500 -1,403 Descending Denver Center
Wed 12:41:13 PM 39.7117 -104.4644 308° West 310 357 14,000 -1,403 Descending Denver Center
Wed 12:42:15 PM 39.7761 -104.5244 324° Northwest 302 348 12,600 -1,306 Descending Denver Center
Wed 12:43:17 PM 39.8683 -104.5217 North 311 358 11,300 -774 Descending Denver Center
Wed 12:44:19 PM 39.9489 -104.5219 360° North 287 330 11,000 -629 Descending Denver Center
Wed 12:45:21 PM 40.0225 -104.5189 North 246 283 10,000 -1,016 Descending Denver Center
Wed 12:46:23 PM 40.0586 -104.5528 324° Northwest 238 274 8,900 -1,440 Descending Denver Center
Wed 12:47:26 PM 40.0317 -104.6442 249° West 220 253 7,000 -912 Descending Denver Center
Wed 12:48:28 PM 39.9819 -104.6836 211° Southwest 212 244 7,000 -484 Level Denver Center
Wed 12:49:30 PM 39.9322 -104.6864 182° South 165 190 6,000 -823 Descending Denver Center
Wed 12:50:32 PM 39.8897 -104.6872 181° South 153 176 5,300 -677 Descending Denver Center
Wed 12:52:00 PM 39.8617 -104.6732 North  Level Estimated
Wed 12:59:00 PM 39.8617 -104.6732 North  Level Estimated
Wed 01:00:00 PM 39.8617 -104.6732 North  Level Estimated
Wed 01:01:00 PM 39.8617 -104.6732 North  Level Estimated

Login

Don't have an account? Register now (free) for customized features, flight alerts, and more!